Saturday, August 18, 2018, 2:52 AM GMT
Back to Local

CYQM, Moncton, N. B.

Location: , , Canada Lat: 46.117
Local Time: 2:52 AM GMT ( 2:52 GMT) Lon: -64.683
Time Zone: GMT Elev: 232 ft

Show me the last for .
Show Decoded

2018-08-18 02:00 METAR CYQM 180200Z 20004KT 15SM SCT042 BKN240 17/11 A2999 RMK SC3CI2 SLP159
                 DENSITY ALT 400FT =
2018-08-18 01:00 METAR CYQM 180100Z 22006KT 15SM SCT042 18/12 A3000 RMK SC4 SLP161 DENSITY ALT
                 600FT =
2018-08-18 00:00 METAR CYQM 180000Z 21009KT 15SM BKN043 BKN140 OVC250 20/13 A3000 RMK SC6AC1CI1
                 SLP161 DENSITY ALT 800FT =
2018-08-17 23:00 METAR CYQM 172300Z 14005KT 15SM BKN046 BKN150 OVC260 20/15 A2999 RMK SC6AC1CI1
                 SLP157 DENSITY ALT 800FT =
2018-08-17 22:00 METAR CYQM 172200Z 14006KT 15SM FEW046 FEW120 BKN260 21/15 A2999 RMK SC1AC1CI6
                 AC TR SLP158 DENSITY ALT 900FT =
2018-08-17 21:00 METAR CYQM 172100Z 16008KT 15SM SCT049 SCT120 BKN260 22/14 A3000 RMK SC3AC1CI4
                 AC TR SLP162 DENSITY ALT 1000FT =
2018-08-17 20:00 METAR CYQM 172000Z 17007KT 120V190 15SM BKN049 BKN260 22/14 A3002 RMK SC5CI1
                 SLP167 DENSITY ALT 1000FT =
2018-08-17 19:00 METAR CYQM 171900Z 15009KT 15SM SCT043 SCT260 23/14 A3003 RMK SC3CI1 SLP171
                 DENSITY ALT 1200FT =
2018-08-17 18:00 METAR CYQM 171800Z 23008KT 190V270 15SM SCT038 BKN260 23/12 A3004 RMK SC4CI1
                 SLP174 DENSITY ALT 1100FT =
2018-08-17 17:00 METAR CYQM 171700Z 25005KT 15SM BKN042 22/12 A3005 RMK SC6 SLP179 DENSITY ALT
                 1000FT =
2018-08-17 16:00 METAR CYQM 171600Z 23007KT 150V290 15SM BKN039 21/12 A3007 RMK CU6 SLP184
                 DENSITY ALT 800FT =
2018-08-17 15:00 METAR CYQM 171500Z VRB02KT 15SM SCT026 SCT260 20/14 A3009 RMK CU3CI1 SLP193
                 DENSITY ALT 700FT =
2018-08-17 14:00 METAR CYQM 171400Z 00000KT 15SM FEW022 SCT260 18/12 A3011 RMK CU2CI2 SLP197
                 DENSITY ALT 400FT =
2018-08-17 13:00 METAR CYQM 171300Z 23004KT 190V260 15SM FEW015 SCT260 17/14 A3012 RMK CU1CI3
                 SLP201 DENSITY ALT 300FT =
2018-08-17 12:00 METAR CYQM 171200Z 22005KT 15SM FEW015 FEW100 SCT260 14/13 A3011 RMK CU1AC1CI3
                 CU TR AC TR SLP200 =
2018-08-17 11:00 METAR CYQM 171100Z 22006KT 15SM FEW003 FEW020 SCT260 12/12 A3011 RMK SF1SC1CI3
                 SF TR SC TR SLP198 =
2018-08-17 10:00 METAR CYQM 171000Z 21006KT 210V290 15SM FEW020 FEW075 SCT260 10/10 A3011 RMK
                 SC1AC1CI2 SC TR SLP198 =
2018-08-17 09:00 METAR CYQM 170900Z 25003KT 15SM FEW075 SCT250 11/11 A3009 RMK AC1CI2 SLP192 =
2018-08-17 08:00 METAR CYQM 170800Z 31003KT 15SM FEW240 11/11 A3007 RMK CI2 SLP187 =
2018-08-17 07:00 METAR CYQM 170700Z 30002KT 15SM FEW240 12/11 A3007 RMK CI2 SLP185 =
2018-08-17 06:00 METAR CYQM 170600Z 30004KT 15SM FEW030 FEW240 12/11 A3007 RMK SC1CI1 SLP184 =
2018-08-17 05:00 METAR CYQM 170500Z 30003KT 15SM FEW027 SCT250 13/12 A3006 RMK SC2CI1 SLP180 =
2018-08-17 04:00 METAR CYQM 170400Z 30004KT 15SM SCT022 13/13 A3005 RMK SC3 SLP179 =
2018-08-17 03:00 METAR CYQM 170300Z 32007KT 15SM FEW009 BKN022 15/14 A3004 RMK SF1SC6 SLP176 =

Support USWX by starting your Amazon purchase here.